createdAt,value
2018-05-10T00:00:13.445Z,0.00
2018-05-10T00:01:13.447Z,0.00
2018-05-10T00:02:13.449Z,0.00
2018-05-10T00:03:13.449Z,0.00
2018-05-10T00:04:13.449Z,0.00
2018-05-10T00:05:13.452Z,0.00
2018-05-10T00:06:13.452Z,0.00
2018-05-10T00:07:13.454Z,0.00
2018-05-10T00:08:13.457Z,0.00
2018-05-10T00:09:13.455Z,0.00
2018-05-10T00:10:13.463Z,0.00
2018-05-10T00:11:13.461Z,0.00
2018-05-10T00:12:13.473Z,0.00
2018-05-10T00:13:13.462Z,0.00
2018-05-10T00:14:13.465Z,0.00
2018-05-10T00:15:13.467Z,0.00
2018-05-10T00:16:13.467Z,0.00
2018-05-10T00:17:13.467Z,0.00
2018-05-10T00:18:13.468Z,0.00
2018-05-10T00:19:13.468Z,0.00
2018-05-10T00:20:13.472Z,0.00
2018-05-10T00:21:13.474Z,0.00
2018-05-10T00:22:13.471Z,0.00
2018-05-10T00:23:13.473Z,0.00
2018-05-10T00:24:13.474Z,0.00
2018-05-10T00:25:13.475Z,0.00
2018-05-10T00:26:13.478Z,0.00
2018-05-10T00:27:13.479Z,0.00
2018-05-10T00:28:13.479Z,0.00
2018-05-10T00:29:13.480Z,0.00
2018-05-10T00:30:13.483Z,0.00
2018-05-10T00:31:13.484Z,0.00
2018-05-10T00:32:13.493Z,0.00
2018-05-10T00:33:13.491Z,0.00
2018-05-10T00:34:13.481Z,0.00
2018-05-10T00:35:13.488Z,0.00
2018-05-10T00:36:13.486Z,0.00
2018-05-10T00:37:13.490Z,0.00
2018-05-10T00:38:13.492Z,0.00
2018-05-10T00:39:13.490Z,0.00
2018-05-10T00:40:13.493Z,0.00
2018-05-10T00:41:13.495Z,0.00
2018-05-10T00:42:13.492Z,0.00
2018-05-10T00:43:13.495Z,0.00
2018-05-10T00:44:13.495Z,0.00
2018-05-10T00:45:13.496Z,0.00
2018-05-10T00:46:13.497Z,0.00
2018-05-10T00:47:13.499Z,0.00
2018-05-10T00:48:13.498Z,0.00
2018-05-10T00:49:13.503Z,0.00
2018-05-10T00:50:13.510Z,0.00
2018-05-10T00:51:13.505Z,0.00
2018-05-10T00:52:13.505Z,0.00
2018-05-10T00:53:13.511Z,0.00
2018-05-10T00:54:13.506Z,0.00
2018-05-10T00:55:13.505Z,0.00
2018-05-10T00:56:13.506Z,0.00
2018-05-10T00:57:13.508Z,0.00
2018-05-10T00:58:13.515Z,0.00
2018-05-10T00:59:13.504Z,0.00
2018-05-10T01:00:13.509Z,0.00
2018-05-10T01:01:13.516Z,0.00
2018-05-10T01:02:13.513Z,0.00
2018-05-10T01:03:13.511Z,0.00
2018-05-10T01:04:13.517Z,0.00
2018-05-10T01:05:13.516Z,0.00
2018-05-10T01:06:13.516Z,0.00
2018-05-10T01:07:13.516Z,0.00
2018-05-10T01:08:13.517Z,0.00
2018-05-10T01:09:13.518Z,0.00
2018-05-10T01:10:13.522Z,0.00
2018-05-10T01:11:13.523Z,0.00
2018-05-10T01:12:13.521Z,0.00
2018-05-10T01:13:13.528Z,0.00
2018-05-10T01:14:13.528Z,0.00
2018-05-10T01:15:13.521Z,0.00
2018-05-10T01:16:13.522Z,0.00
2018-05-10T01:17:13.523Z,0.00
2018-05-10T01:18:13.524Z,0.00
2018-05-10T01:19:13.527Z,0.00
2018-05-10T01:20:13.533Z,0.00
2018-05-10T01:21:13.529Z,0.00
2018-05-10T01:22:13.529Z,0.00
2018-05-10T01:23:13.529Z,0.00
2018-05-10T01:24:13.530Z,0.00
2018-05-10T01:25:13.529Z,0.00
2018-05-10T01:26:13.540Z,0.00
2018-05-10T01:27:13.537Z,0.00
2018-05-10T01:28:13.531Z,0.00
2018-05-10T01:29:13.537Z,0.00
2018-05-10T01:30:13.542Z,0.00
2018-05-10T01:31:13.538Z,0.00
2018-05-10T01:32:13.535Z,0.00
2018-05-10T01:33:13.539Z,0.00
2018-05-10T01:34:13.535Z,0.00
2018-05-10T01:35:13.538Z,0.00
2018-05-10T01:36:13.540Z,0.00
2018-05-10T01:37:13.540Z,0.00
2018-05-10T01:38:13.545Z,0.00
2018-05-10T01:39:13.547Z,0.00
2018-05-10T01:40:13.545Z,0.00
2018-05-10T01:41:13.543Z,0.00
2018-05-10T01:42:13.544Z,0.00
2018-05-10T01:43:13.547Z,0.00
2018-05-10T01:44:13.547Z,0.00
2018-05-10T01:45:13.545Z,0.00
2018-05-10T01:46:13.547Z,0.00
2018-05-10T01:47:13.548Z,0.00
2018-05-10T01:48:13.551Z,0.00
2018-05-10T01:49:13.547Z,0.00
2018-05-10T01:50:13.551Z,0.00
2018-05-10T01:51:13.548Z,0.00
2018-05-10T01:52:13.548Z,0.00
2018-05-10T01:53:13.551Z,0.00
2018-05-10T01:54:13.557Z,0.00
2018-05-10T01:55:13.552Z,0.00
2018-05-10T01:56:13.551Z,0.00
2018-05-10T01:57:13.557Z,0.00
2018-05-10T01:58:13.555Z,0.00
2018-05-10T01:59:13.554Z,0.00
2018-05-10T02:00:13.553Z,0.00
2018-05-10T02:01:13.557Z,0.00
2018-05-10T02:02:13.557Z,0.00
2018-05-10T02:03:13.558Z,0.00
2018-05-10T02:04:13.559Z,0.00
2018-05-10T02:05:13.558Z,0.00
2018-05-10T02:06:13.560Z,0.00
2018-05-10T02:07:13.570Z,0.00
2018-05-10T02:08:13.558Z,0.00
2018-05-10T02:09:13.560Z,0.00
2018-05-10T02:10:13.561Z,0.00
2018-05-10T02:11:13.564Z,0.00
2018-05-10T02:12:13.566Z,0.00
2018-05-10T02:13:13.565Z,0.00
2018-05-10T02:14:13.566Z,0.00
2018-05-10T02:15:13.565Z,0.00
2018-05-10T02:16:13.573Z,0.00
2018-05-10T02:17:13.579Z,0.00
2018-05-10T02:18:13.570Z,0.00
2018-05-10T02:19:13.567Z,0.00
2018-05-10T02:20:13.569Z,0.00
2018-05-10T02:21:13.571Z,0.00
2018-05-10T02:22:13.575Z,0.00
2018-05-10T02:23:13.571Z,0.00
2018-05-10T02:24:13.575Z,0.00
2018-05-10T02:25:13.570Z,0.00
2018-05-10T02:26:13.572Z,0.00
2018-05-10T02:27:13.573Z,0.00
2018-05-10T02:28:13.571Z,0.00
2018-05-10T02:29:13.575Z,0.00
2018-05-10T02:30:13.579Z,0.00
2018-05-10T02:31:13.576Z,0.00
2018-05-10T02:32:13.578Z,0.00
2018-05-10T02:33:13.576Z,0.00
2018-05-10T02:34:13.581Z,0.00
2018-05-10T02:35:13.588Z,0.00
2018-05-10T02:36:13.580Z,0.00
2018-05-10T02:37:13.581Z,0.00
2018-05-10T02:38:13.581Z,0.00
2018-05-10T02:39:13.583Z,0.00
2018-05-10T02:40:13.578Z,0.00
2018-05-10T02:41:13.581Z,0.00
2018-05-10T02:42:13.582Z,0.00
2018-05-10T02:43:13.584Z,0.00
2018-05-10T02:44:13.587Z,0.00
2018-05-10T02:45:13.588Z,0.00
2018-05-10T02:46:13.588Z,0.00
2018-05-10T02:47:13.592Z,0.00
2018-05-10T02:48:13.591Z,0.00
2018-05-10T02:49:13.591Z,0.00
2018-05-10T02:50:13.589Z,0.00
2018-05-10T02:51:13.594Z,0.00
2018-05-10T02:52:13.594Z,0.00
2018-05-10T02:53:13.591Z,0.00
2018-05-10T02:54:13.592Z,0.00
2018-05-10T02:55:13.594Z,0.00
2018-05-10T02:56:13.593Z,0.00
2018-05-10T02:57:13.595Z,0.00
2018-05-10T02:58:13.597Z,0.00
2018-05-10T02:59:13.591Z,0.00
2018-05-10T03:00:13.595Z,0.00
2018-05-10T03:01:13.598Z,0.00
2018-05-10T03:02:13.612Z,0.00
2018-05-10T03:03:13.600Z,0.00
2018-05-10T03:04:13.597Z,0.00
2018-05-10T03:05:13.597Z,0.00
2018-05-10T03:06:13.603Z,0.00
2018-05-10T03:07:13.601Z,0.00
2018-05-10T03:08:13.602Z,0.00
2018-05-10T03:09:13.605Z,0.00
2018-05-10T03:10:13.603Z,0.00
2018-05-10T03:11:13.605Z,0.00
2018-05-10T03:12:13.606Z,0.00
2018-05-10T03:13:13.606Z,0.00
2018-05-10T03:14:13.602Z,0.00
2018-05-10T03:15:13.605Z,0.00
2018-05-10T03:16:13.607Z,0.00
2018-05-10T03:17:13.609Z,0.00
2018-05-10T03:18:13.609Z,0.00
2018-05-10T03:19:13.611Z,0.00
2018-05-10T03:20:13.610Z,0.00
2018-05-10T03:21:13.617Z,0.00
2018-05-10T03:22:13.611Z,0.00
2018-05-10T03:23:13.612Z,0.00
2018-05-10T03:24:13.610Z,0.00
2018-05-10T03:25:13.614Z,0.00
2018-05-10T03:26:13.617Z,0.00
2018-05-10T03:27:13.615Z,0.00
2018-05-10T03:28:13.616Z,0.00
2018-05-10T03:29:13.615Z,0.00
2018-05-10T03:30:13.621Z,5.63
2018-05-10T03:31:13.619Z,5.63
2018-05-10T03:32:13.620Z,5.63
2018-05-10T03:33:13.646Z,5.63
2018-05-10T03:34:13.619Z,5.63
2018-05-10T03:35:13.621Z,5.63
2018-05-10T03:36:13.623Z,5.63
2018-05-10T03:37:13.623Z,5.63
2018-05-10T03:38:13.624Z,5.63
2018-05-10T03:39:13.625Z,5.63
2018-05-10T03:40:13.625Z,11.25
2018-05-10T03:41:13.626Z,11.25
2018-05-10T03:42:13.627Z,11.25
2018-05-10T03:43:13.676Z,11.25
2018-05-10T03:44:13.628Z,11.25
2018-05-10T03:45:13.627Z,16.88
2018-05-10T03:46:13.629Z,16.88
2018-05-10T03:47:13.631Z,16.88
2018-05-10T03:48:13.634Z,16.88
2018-05-10T03:49:13.633Z,22.50
2018-05-10T03:50:13.634Z,22.50
2018-05-10T03:51:13.633Z,22.50
2018-05-10T03:52:13.634Z,28.13
2018-05-10T03:53:13.637Z,28.13
2018-05-10T03:54:13.636Z,28.13
2018-05-10T03:55:13.636Z,28.13
2018-05-10T03:56:13.643Z,33.75
2018-05-10T03:57:13.638Z,33.75
2018-05-10T03:58:13.640Z,33.75
2018-05-10T03:59:13.647Z,33.75
2018-05-10T04:00:13.651Z,33.75
2018-05-10T04:01:13.643Z,28.13
2018-05-10T04:02:13.642Z,33.75
2018-05-10T04:03:13.643Z,33.75
2018-05-10T04:04:13.644Z,33.75
2018-05-10T04:05:13.645Z,33.75
2018-05-10T04:06:13.647Z,39.38
2018-05-10T04:07:13.647Z,39.38
2018-05-10T04:08:13.647Z,33.75
2018-05-10T04:09:13.650Z,33.75
2018-05-10T04:10:13.649Z,33.75
2018-05-10T04:11:13.650Z,33.75
2018-05-10T04:12:13.652Z,33.75
2018-05-10T04:13:13.652Z,33.75
2018-05-10T04:14:13.653Z,33.75
2018-05-10T04:15:13.652Z,33.75
2018-05-10T04:16:13.655Z,33.75
2018-05-10T04:17:13.655Z,33.75
2018-05-10T04:18:13.657Z,33.75
2018-05-10T04:19:13.658Z,33.75
2018-05-10T04:20:13.655Z,33.75
2018-05-10T04:21:13.661Z,33.75
2018-05-10T04:22:13.661Z,33.75
2018-05-10T04:23:13.659Z,33.75
2018-05-10T04:24:13.659Z,33.75
2018-05-10T04:25:13.658Z,33.75
2018-05-10T04:26:13.661Z,33.75
2018-05-10T04:27:13.664Z,33.75
2018-05-10T04:28:13.665Z,33.75
2018-05-10T04:29:13.664Z,33.75
2018-05-10T04:30:13.666Z,33.75
2018-05-10T04:31:13.665Z,33.75
2018-05-10T04:32:13.667Z,33.75
2018-05-10T04:33:13.669Z,33.75
2018-05-10T04:34:13.669Z,33.75
2018-05-10T04:35:13.672Z,33.75
2018-05-10T04:36:13.673Z,33.75
2018-05-10T04:37:13.671Z,39.38
2018-05-10T04:38:13.673Z,39.38
2018-05-10T04:39:13.672Z,39.38
2018-05-10T04:40:13.675Z,39.38
2018-05-10T04:41:13.676Z,39.38
2018-05-10T04:42:13.723Z,45.00
2018-05-10T04:43:13.676Z,45.00
2018-05-10T04:44:13.679Z,50.63
2018-05-10T04:45:13.678Z,50.63
2018-05-10T04:46:13.679Z,50.63
2018-05-10T04:47:13.727Z,56.25
2018-05-10T04:48:13.681Z,56.25
2018-05-10T04:49:13.682Z,56.25
2018-05-10T04:50:13.683Z,61.88
2018-05-10T04:51:13.684Z,61.88
2018-05-10T04:52:13.685Z,61.88
2018-05-10T04:53:13.691Z,67.50
2018-05-10T04:54:13.688Z,67.50
2018-05-10T04:55:13.695Z,67.50
2018-05-10T04:56:13.747Z,73.13
2018-05-10T04:57:13.690Z,78.75
2018-05-10T04:58:13.690Z,78.75
2018-05-10T04:59:13.690Z,78.75
2018-05-10T05:00:13.781Z,84.38
2018-05-10T05:01:13.697Z,84.38
2018-05-10T05:02:13.695Z,90.00
2018-05-10T05:03:13.697Z,90.00
2018-05-10T05:04:13.696Z,95.63
2018-05-10T05:05:13.697Z,101.25
2018-05-10T05:06:13.700Z,106.88
2018-05-10T05:07:13.700Z,106.88
2018-05-10T05:08:13.703Z,112.50
2018-05-10T05:09:13.706Z,118.13
2018-05-10T05:10:13.704Z,123.75
2018-05-10T05:11:13.709Z,123.75
2018-05-10T05:12:13.706Z,129.38
2018-05-10T05:13:13.706Z,129.38
2018-05-10T05:14:13.714Z,129.38
2018-05-10T05:15:13.708Z,135.00
2018-05-10T05:16:13.708Z,135.00
2018-05-10T05:17:13.710Z,135.00
2018-05-10T05:18:13.711Z,129.38
2018-05-10T05:19:13.711Z,129.38
2018-05-10T05:20:13.714Z,129.38
2018-05-10T05:21:13.716Z,129.38
2018-05-10T05:22:13.716Z,129.38
2018-05-10T05:23:13.716Z,129.38
2018-05-10T05:24:13.718Z,129.38
2018-05-10T05:25:13.720Z,123.75
2018-05-10T05:26:13.728Z,123.75
2018-05-10T05:27:13.722Z,118.13
2018-05-10T05:28:13.727Z,112.50
2018-05-10T05:29:13.725Z,112.50
2018-05-10T05:30:13.724Z,112.50
2018-05-10T05:31:13.728Z,106.88
2018-05-10T05:32:13.728Z,106.88
2018-05-10T05:33:13.730Z,106.88
2018-05-10T05:34:13.729Z,106.88
2018-05-10T05:35:13.731Z,101.25
2018-05-10T05:36:13.732Z,101.25
2018-05-10T05:37:13.735Z,101.25
2018-05-10T05:38:13.735Z,101.25
2018-05-10T05:39:13.736Z,101.25
2018-05-10T05:40:13.737Z,106.88
2018-05-10T05:41:13.799Z,112.50
2018-05-10T05:42:13.741Z,112.50
2018-05-10T05:43:13.747Z,118.13
2018-05-10T05:44:13.745Z,123.75
2018-05-10T05:45:13.746Z,123.75
2018-05-10T05:46:13.750Z,129.38
2018-05-10T05:47:13.753Z,135.00
2018-05-10T05:48:13.749Z,140.63
2018-05-10T05:49:13.750Z,151.88
2018-05-10T05:50:13.752Z,157.50
2018-05-10T05:51:13.807Z,163.13
2018-05-10T05:52:13.754Z,168.75
2018-05-10T05:53:13.751Z,168.75
2018-05-10T05:54:13.758Z,174.38
2018-05-10T05:55:13.758Z,180.00
2018-05-10T05:56:13.760Z,185.63
2018-05-10T05:57:13.763Z,191.25
2018-05-10T05:58:13.763Z,196.88
2018-05-10T05:59:13.763Z,202.50
2018-05-10T06:00:13.765Z,208.13
2018-05-10T06:01:13.765Z,213.75
2018-05-10T06:02:13.772Z,219.38
2018-05-10T06:03:13.769Z,219.38
2018-05-10T06:04:13.771Z,219.38
2018-05-10T06:05:13.772Z,219.38
2018-05-10T06:06:13.773Z,225.00
2018-05-10T06:07:13.785Z,230.63
2018-05-10T06:08:13.782Z,230.63
2018-05-10T06:09:13.778Z,225.00
2018-05-10T06:10:13.775Z,225.00
2018-05-10T06:11:13.778Z,219.38
2018-05-10T06:12:13.782Z,219.38
2018-05-10T06:13:13.782Z,213.75
2018-05-10T06:14:13.791Z,219.38
2018-05-10T06:15:13.788Z,230.63
2018-05-10T06:16:13.789Z,247.50
2018-05-10T06:17:13.791Z,275.63
2018-05-10T06:18:13.793Z,303.75
2018-05-10T06:19:13.797Z,326.25
2018-05-10T06:20:13.797Z,343.13
2018-05-10T06:21:13.799Z,360.00
2018-05-10T06:22:13.800Z,393.75
2018-05-10T06:23:13.800Z,388.13
2018-05-10T06:24:13.803Z,444.38
2018-05-10T06:25:13.892Z,376.88
2018-05-10T06:26:13.809Z,371.25
2018-05-10T06:27:13.809Z,371.25
2018-05-10T06:28:13.809Z,360.00
2018-05-10T06:29:13.813Z,360.00
2018-05-10T06:30:13.820Z,360.00
2018-05-10T06:31:13.821Z,348.75
2018-05-10T06:32:13.821Z,343.13
2018-05-10T06:33:13.824Z,331.88
2018-05-10T06:34:13.825Z,326.25
2018-05-10T06:35:13.828Z,534.38
2018-05-10T06:36:13.838Z,343.13
2018-05-10T06:37:13.833Z,320.63
2018-05-10T06:38:13.835Z,298.13
2018-05-10T06:39:13.839Z,286.88
2018-05-10T06:40:13.841Z,275.63
2018-05-10T06:41:13.844Z,264.38
2018-05-10T06:42:13.850Z,258.75
2018-05-10T06:43:13.848Z,253.13
2018-05-10T06:44:13.850Z,241.88
2018-05-10T06:45:13.862Z,236.25
2018-05-10T06:46:13.856Z,230.63
2018-05-10T06:47:13.863Z,225.00
2018-05-10T06:48:13.863Z,225.00
2018-05-10T06:49:13.864Z,225.00
2018-05-10T06:50:13.864Z,225.00
2018-05-10T06:51:13.868Z,225.00
2018-05-10T06:52:13.873Z,225.00
2018-05-10T06:53:13.873Z,219.38
2018-05-10T06:54:13.877Z,219.38
2018-05-10T06:55:13.879Z,219.38
2018-05-10T06:56:13.884Z,219.38
2018-05-10T06:57:13.881Z,213.75
2018-05-10T06:58:13.886Z,213.75
2018-05-10T06:59:13.911Z,213.75
2018-05-10T07:00:13.891Z,219.38
2018-05-10T07:01:13.890Z,219.38
2018-05-10T07:02:13.895Z,225.00
2018-05-10T07:03:13.899Z,236.25
2018-05-10T07:04:13.900Z,241.88
2018-05-10T07:05:13.904Z,247.50
2018-05-10T07:06:13.908Z,258.75
2018-05-10T07:07:13.908Z,264.38
2018-05-10T07:08:13.911Z,275.63
2018-05-10T07:09:13.912Z,281.25
2018-05-10T07:10:13.920Z,292.50
2018-05-10T07:11:13.916Z,298.13
2018-05-10T07:12:13.924Z,309.38
2018-05-10T07:13:13.922Z,320.63
2018-05-10T07:14:13.925Z,331.88
2018-05-10T07:15:13.928Z,343.13
2018-05-10T07:16:13.930Z,360.00
2018-05-10T07:17:13.931Z,365.63
2018-05-10T07:18:13.936Z,376.88
2018-05-10T07:19:13.937Z,382.50
2018-05-10T07:20:13.940Z,382.50
2018-05-10T07:21:13.942Z,382.50
2018-05-10T07:22:13.945Z,376.88
2018-05-10T07:23:13.947Z,376.88
2018-05-10T07:24:13.948Z,382.50
2018-05-10T07:25:14.043Z,393.75
2018-05-10T07:26:13.959Z,405.00
2018-05-10T07:27:13.959Z,416.25
2018-05-10T07:28:13.961Z,421.88
2018-05-10T07:29:13.969Z,433.13
2018-05-10T07:30:13.964Z,438.75
2018-05-10T07:31:13.970Z,444.38
2018-05-10T07:32:13.979Z,444.38
2018-05-10T07:33:13.975Z,444.38
2018-05-10T07:34:13.978Z,438.75
2018-05-10T07:35:13.981Z,438.75
2018-05-10T07:36:13.983Z,433.13
2018-05-10T07:37:13.992Z,433.13
2018-05-10T07:38:13.990Z,450.00
2018-05-10T07:39:13.999Z,455.63
2018-05-10T07:40:13.996Z,466.88
2018-05-10T07:41:14.005Z,466.88
2018-05-10T07:42:14.006Z,483.75
2018-05-10T07:43:14.017Z,500.63
2018-05-10T07:44:14.013Z,528.75
2018-05-10T07:45:14.015Z,596.25
2018-05-10T07:46:14.020Z,551.25
2018-05-10T07:47:14.090Z,540.00
2018-05-10T07:48:14.022Z,585.00
2018-05-10T07:49:14.033Z,748.13
2018-05-10T07:50:14.034Z,765.00
2018-05-10T07:51:14.036Z,973.13
2018-05-10T07:52:14.040Z,742.50
2018-05-10T07:53:14.106Z,708.75
2018-05-10T07:54:14.047Z,731.25
2018-05-10T07:55:14.051Z,675.00
2018-05-10T07:56:14.057Z,652.50
2018-05-10T07:57:14.061Z,635.63
2018-05-10T07:58:14.066Z,658.13
2018-05-10T07:59:14.069Z,635.63
2018-05-10T08:00:14.073Z,798.75
2018-05-10T08:01:14.082Z,1018.13
2018-05-10T08:02:14.115Z,871.88
2018-05-10T08:03:14.088Z,731.25
2018-05-10T08:04:14.094Z,759.38
2018-05-10T08:05:14.105Z,1271.25
2018-05-10T08:06:14.105Z,866.25
2018-05-10T08:07:14.103Z,883.13
2018-05-10T08:08:14.108Z,1029.38
2018-05-10T08:09:14.114Z,720.00
2018-05-10T08:10:14.156Z,2761.88
2018-05-10T08:11:14.126Z,1603.13
2018-05-10T08:12:14.135Z,2863.13
2018-05-10T08:13:14.136Z,1423.13
2018-05-10T08:14:14.143Z,1749.38
2018-05-10T08:15:14.149Z,3116.25
2018-05-10T08:16:14.155Z,2992.50
2018-05-10T08:17:14.203Z,2143.13
2018-05-10T08:18:14.168Z,3116.25
2018-05-10T08:19:14.176Z,748.13
2018-05-10T08:20:14.182Z,641.25
2018-05-10T08:21:14.188Z,1698.75
2018-05-10T08:22:14.196Z,2643.75
2018-05-10T08:23:14.203Z,2818.13
2018-05-10T08:24:14.223Z,2958.75
2018-05-10T08:25:14.228Z,2773.13
2018-05-10T08:26:14.228Z,2632.50
2018-05-10T08:27:14.234Z,2632.50
2018-05-10T08:28:14.243Z,2745.00
2018-05-10T08:29:14.249Z,2790.00
2018-05-10T08:30:14.326Z,2728.13
2018-05-10T08:31:14.270Z,2739.38
2018-05-10T08:32:14.278Z,2801.25
2018-05-10T08:33:14.287Z,2840.63
2018-05-10T08:34:14.293Z,2812.50
2018-05-10T08:35:14.303Z,2784.38
2018-05-10T08:36:14.320Z,2891.25
2018-05-10T08:37:14.323Z,1946.25
2018-05-10T08:38:14.330Z,2941.88
2018-05-10T08:39:14.342Z,1704.38
2018-05-10T08:40:14.350Z,1935.00
2018-05-10T08:41:14.361Z,1906.88
2018-05-10T08:42:14.370Z,1535.63
2018-05-10T08:43:14.381Z,2295.00
2018-05-10T08:44:14.394Z,753.75
2018-05-10T08:45:14.397Z,658.13
2018-05-10T08:46:14.409Z,1175.63
2018-05-10T08:47:14.416Z,630.00
2018-05-10T08:48:14.427Z,714.38
2018-05-10T08:49:14.438Z,686.25
2018-05-10T08:50:14.448Z,658.13
2018-05-10T08:51:14.456Z,618.75
2018-05-10T08:52:14.466Z,579.38
2018-05-10T08:53:14.476Z,540.00
2018-05-10T08:54:14.489Z,500.63
2018-05-10T08:55:14.495Z,461.25
2018-05-10T08:56:14.505Z,421.88
2018-05-10T08:57:14.515Z,388.13
2018-05-10T08:58:14.565Z,348.75
2018-05-10T08:59:14.537Z,326.25
2018-05-10T09:00:14.542Z,326.25
2018-05-10T09:01:14.555Z,320.63
2018-05-10T09:02:14.562Z,292.50
2018-05-10T09:03:14.570Z,281.25
2018-05-10T09:04:14.579Z,264.38
2018-05-10T09:05:14.588Z,258.75
2018-05-10T09:06:14.596Z,253.13
2018-05-10T09:07:14.607Z,281.25
2018-05-10T09:08:14.616Z,275.63
2018-05-10T09:09:14.622Z,264.38
2018-05-10T09:10:14.629Z,241.88
2018-05-10T09:11:14.635Z,258.75
2018-05-10T09:12:14.643Z,275.63
2018-05-10T09:13:14.650Z,264.38
2018-05-10T09:14:14.662Z,236.25
2018-05-10T09:15:14.675Z,225.00
2018-05-10T09:16:14.678Z,219.38
2018-05-10T09:17:14.681Z,219.38
2018-05-10T09:18:14.688Z,208.13
2018-05-10T09:19:14.696Z,213.75
2018-05-10T09:20:14.731Z,213.75
2018-05-10T09:21:14.708Z,208.13
2018-05-10T09:22:14.710Z,202.50
2018-05-10T09:23:14.719Z,191.25
2018-05-10T09:24:14.729Z,185.63
2018-05-10T09:25:14.733Z,180.00
2018-05-10T09:26:14.744Z,180.00
2018-05-10T09:27:14.745Z,174.38
2018-05-10T09:28:14.755Z,174.38
2018-05-10T09:29:14.758Z,168.75
2018-05-10T09:30:14.765Z,168.75
2018-05-10T09:31:14.770Z,168.75
2018-05-10T09:32:14.777Z,168.75
2018-05-10T09:33:14.785Z,168.75
2018-05-10T09:34:14.788Z,163.13
2018-05-10T09:35:14.792Z,163.13
2018-05-10T09:36:14.804Z,163.13
2018-05-10T09:37:14.806Z,163.13
2018-05-10T09:38:14.812Z,163.13
2018-05-10T09:39:14.830Z,163.13
2018-05-10T09:40:14.822Z,163.13
2018-05-10T09:41:14.828Z,163.13
2018-05-10T09:42:14.831Z,163.13
2018-05-10T09:43:14.841Z,163.13
2018-05-10T09:44:14.844Z,163.13
2018-05-10T09:45:14.853Z,163.13
2018-05-10T09:46:14.924Z,163.13
2018-05-10T09:47:14.864Z,163.13
2018-05-10T09:48:14.866Z,163.13
2018-05-10T09:49:14.871Z,163.13
2018-05-10T09:50:14.877Z,163.13
2018-05-10T09:51:14.888Z,157.50
2018-05-10T09:52:14.891Z,157.50
2018-05-10T09:53:14.894Z,157.50
2018-05-10T09:54:14.900Z,157.50
2018-05-10T09:55:14.910Z,157.50
2018-05-10T09:56:14.912Z,163.13
2018-05-10T09:57:14.916Z,163.13
2018-05-10T09:58:14.924Z,163.13
2018-05-10T09:59:14.928Z,163.13
2018-05-10T10:00:14.935Z,163.13
2018-05-10T10:01:14.938Z,163.13
2018-05-10T10:02:14.950Z,163.13
2018-05-10T10:03:14.950Z,163.13
2018-05-10T10:04:14.954Z,163.13
2018-05-10T10:05:14.959Z,163.13
2018-05-10T10:06:15.041Z,163.13
2018-05-10T10:07:14.969Z,163.13
2018-05-10T10:08:14.974Z,163.13
2018-05-10T10:09:14.980Z,163.13
2018-05-10T10:10:14.988Z,163.13
2018-05-10T10:11:14.989Z,163.13
2018-05-10T10:12:14.997Z,163.13
2018-05-10T10:13:15.002Z,163.13
2018-05-10T10:14:15.009Z,163.13
2018-05-10T10:15:15.014Z,163.13
2018-05-10T10:16:15.018Z,163.13
2018-05-10T10:17:15.023Z,163.13
2018-05-10T10:18:15.030Z,163.13
2018-05-10T10:19:15.032Z,163.13
2018-05-10T10:20:15.038Z,168.75
2018-05-10T10:21:15.047Z,163.13
2018-05-10T10:22:15.050Z,168.75
2018-05-10T10:23:15.055Z,168.75
2018-05-10T10:24:15.060Z,168.75
2018-05-10T10:25:15.084Z,168.75
2018-05-10T10:26:15.076Z,168.75
2018-05-10T10:27:15.080Z,168.75
2018-05-10T10:28:15.087Z,168.75
2018-05-10T10:29:15.093Z,168.75
2018-05-10T10:30:15.094Z,168.75
2018-05-10T10:31:15.099Z,168.75
2018-05-10T10:32:15.145Z,168.75
2018-05-10T10:33:15.111Z,168.75
2018-05-10T10:34:15.116Z,174.38
2018-05-10T10:35:15.122Z,174.38
2018-05-10T10:36:15.127Z,174.38
2018-05-10T10:37:15.132Z,174.38
2018-05-10T10:38:15.167Z,174.38
2018-05-10T10:39:15.144Z,174.38
2018-05-10T10:40:15.182Z,174.38
2018-05-10T10:41:15.154Z,168.75
2018-05-10T10:42:15.161Z,168.75
2018-05-10T10:43:15.167Z,168.75
2018-05-10T10:44:15.173Z,168.75
2018-05-10T10:45:15.178Z,174.38
2018-05-10T10:46:15.187Z,180.00
2018-05-10T10:47:15.187Z,174.38
2018-05-10T10:48:15.195Z,174.38
2018-05-10T10:49:15.204Z,174.38
2018-05-10T10:50:15.206Z,174.38
2018-05-10T10:51:15.212Z,174.38
2018-05-10T10:52:15.224Z,174.38
2018-05-10T10:53:15.227Z,174.38
2018-05-10T10:54:15.312Z,174.38
2018-05-10T10:55:15.235Z,180.00
2018-05-10T10:56:15.243Z,185.63
2018-05-10T10:57:15.246Z,185.63
2018-05-10T10:58:15.254Z,191.25
2018-05-10T10:59:15.260Z,191.25
2018-05-10T11:00:15.265Z,191.25
2018-05-10T11:01:15.271Z,191.25
2018-05-10T11:02:15.277Z,191.25
2018-05-10T11:03:15.280Z,191.25
2018-05-10T11:04:15.290Z,191.25
2018-05-10T11:05:15.295Z,196.88
2018-05-10T11:06:15.301Z,196.88
2018-05-10T11:07:15.307Z,202.50
2018-05-10T11:08:15.312Z,202.50
2018-05-10T11:09:15.374Z,196.88
2018-05-10T11:10:15.324Z,196.88
2018-05-10T11:11:15.329Z,196.88
2018-05-10T11:12:15.337Z,196.88
2018-05-10T11:13:15.345Z,202.50
2018-05-10T11:14:15.355Z,202.50
2018-05-10T11:15:15.355Z,208.13
2018-05-10T11:16:15.368Z,208.13
2018-05-10T11:17:15.369Z,213.75
2018-05-10T11:18:15.373Z,213.75
2018-05-10T11:19:15.382Z,202.50
2018-05-10T11:20:15.385Z,202.50
2018-05-10T11:21:15.392Z,208.13
2018-05-10T11:22:15.399Z,219.38
2018-05-10T11:23:15.404Z,219.38
2018-05-10T11:24:15.413Z,219.38
2018-05-10T11:25:15.418Z,230.63
2018-05-10T11:26:15.423Z,247.50
2018-05-10T11:27:15.459Z,258.75
2018-05-10T11:28:15.447Z,270.00
2018-05-10T11:29:15.455Z,275.63
2018-05-10T11:30:15.450Z,275.63
2018-05-10T11:31:15.461Z,286.88
2018-05-10T11:32:15.463Z,292.50
2018-05-10T11:33:15.520Z,309.38
2018-05-10T11:34:15.481Z,309.38
2018-05-10T11:35:15.478Z,303.75
2018-05-10T11:36:15.496Z,303.75
2018-05-10T11:37:15.495Z,286.88
2018-05-10T11:38:15.504Z,286.88
2018-05-10T11:39:15.507Z,286.88
2018-05-10T11:40:15.511Z,292.50
2018-05-10T11:41:15.519Z,298.13
2018-05-10T11:42:15.527Z,309.38
2018-05-10T11:43:15.534Z,303.75
2018-05-10T11:44:15.538Z,309.38
2018-05-10T11:45:15.544Z,303.75
2018-05-10T11:46:15.551Z,298.13
2018-05-10T11:47:15.558Z,303.75
2018-05-10T11:48:15.565Z,309.38
2018-05-10T11:49:15.568Z,320.63
2018-05-10T11:50:15.578Z,315.00
2018-05-10T11:51:15.581Z,315.00
2018-05-10T11:52:15.591Z,309.38
2018-05-10T11:53:15.597Z,309.38
2018-05-10T11:54:15.607Z,303.75
2018-05-10T11:55:15.612Z,303.75
2018-05-10T11:56:15.619Z,298.13
2018-05-10T11:57:15.699Z,298.13
2018-05-10T11:58:15.632Z,298.13
2018-05-10T11:59:15.640Z,298.13
2018-05-10T12:00:15.646Z,292.50
2018-05-10T12:01:15.652Z,292.50
2018-05-10T12:02:15.661Z,298.13
2018-05-10T12:03:15.667Z,309.38
2018-05-10T12:04:15.678Z,315.00
2018-05-10T12:05:15.682Z,298.13
2018-05-10T12:06:15.683Z,309.38
2018-05-10T12:07:15.694Z,315.00
2018-05-10T12:08:15.705Z,320.63
2018-05-10T12:09:15.713Z,320.63
2018-05-10T12:10:15.719Z,320.63
2018-05-10T12:11:15.725Z,303.75
2018-05-10T12:12:15.731Z,298.13
2018-05-10T12:13:15.738Z,286.88
2018-05-10T12:14:15.748Z,281.25
2018-05-10T12:15:15.753Z,281.25
2018-05-10T12:16:15.760Z,264.38
2018-05-10T12:17:15.768Z,264.38
2018-05-10T12:18:15.775Z,264.38
2018-05-10T12:19:15.844Z,270.00
2018-05-10T12:20:15.787Z,258.75
2018-05-10T12:21:15.794Z,270.00
2018-05-10T12:22:15.802Z,264.38
2018-05-10T12:23:15.810Z,241.88
2018-05-10T12:24:15.814Z,230.63
2018-05-10T12:25:15.821Z,225.00
2018-05-10T12:26:15.830Z,225.00
2018-05-10T12:27:15.837Z,225.00
2018-05-10T12:28:15.844Z,230.63
2018-05-10T12:29:15.854Z,236.25
2018-05-10T12:30:15.858Z,230.63
2018-05-10T12:31:15.875Z,236.25
2018-05-10T12:32:15.874Z,247.50
2018-05-10T12:33:15.877Z,258.75
2018-05-10T12:34:15.887Z,264.38
2018-05-10T12:35:15.890Z,270.00
2018-05-10T12:36:15.899Z,275.63
2018-05-10T12:37:15.907Z,298.13
2018-05-10T12:38:15.912Z,303.75
2018-05-10T12:39:15.917Z,309.38
2018-05-10T12:40:15.928Z,326.25
2018-05-10T12:41:15.932Z,337.50
2018-05-10T12:42:15.941Z,348.75
2018-05-10T12:43:15.949Z,360.00